Honaker, Virginia
Current Conditions -  °F | °C
As of 1:15 AM on Thursday 29 Jan 2015 (Local Time) from KJFZ Reporting Station
Clear Clear  
Wind Chill:   Ceiling: Unl
Heat Index:   Visibility: 10mi
Dew Point: -12°   Wind: 3mph
Humidity: 40%   Direction: 140°SE
Pressure: 30.17"   Gusts: NA
Location:  37.02°N, 81.97°W
Report Text: KJFZ 290615Z AUTO 14003KT 10SM CLR 00/M12 A3017 RMK AO2 T10011122
Loading
Personal Weather Stations






























Interactive Weather Map New forecast layout! Learn more

10-Day Weather Forecast

Advertisements
Track Severe Weather on mobile